createdAt,value
2023-05-21T04:14:38.491Z,2.90
2023-05-21T04:15:38.844Z,2.00
2023-05-21T04:16:38.865Z,2.40
2023-05-21T04:17:38.913Z,3.00
2023-05-21T04:18:39.018Z,2.70
2023-05-21T04:19:39.186Z,3.10
2023-05-21T04:20:39.245Z,2.30
2023-05-21T04:21:39.451Z,2.80
2023-05-21T04:22:39.500Z,3.00
2023-05-21T04:23:39.652Z,2.60
2023-05-21T04:24:39.834Z,2.50
2023-05-21T04:25:39.922Z,2.10
2023-05-21T04:26:40.097Z,2.20
2023-05-21T04:27:40.223Z,2.80
2023-05-21T04:28:40.346Z,3.00
2023-05-21T04:29:40.515Z,2.80
2023-05-21T04:30:40.636Z,2.60
2023-05-21T04:31:40.800Z,3.50
2023-05-21T04:32:40.912Z,3.00
2023-05-21T04:33:41.047Z,1.90
2023-05-21T04:34:41.154Z,2.70
2023-05-21T04:35:41.270Z,2.20
2023-05-21T04:36:41.375Z,2.50
2023-05-21T04:37:41.502Z,1.90
2023-05-21T04:38:41.652Z,2.30
2023-05-21T04:39:41.762Z,2.70
2023-05-21T04:40:41.918Z,2.60
2023-05-21T04:41:42.015Z,2.20
2023-05-21T04:42:42.097Z,2.50
2023-05-21T04:43:42.240Z,2.80
2023-05-21T04:44:42.377Z,2.40
2023-05-21T04:45:42.519Z,2.90
2023-05-21T04:46:42.721Z,2.80
2023-05-21T04:47:42.831Z,3.00
2023-05-21T04:48:42.880Z,2.30
2023-05-21T04:49:43.008Z,2.20
2023-05-21T04:50:43.168Z,2.80
2023-05-21T04:51:43.246Z,3.40
2023-05-21T04:52:43.386Z,3.90
2023-05-21T04:53:43.494Z,2.20
2023-05-21T04:54:43.594Z,2.40
2023-05-21T04:55:43.724Z,2.60
2023-05-21T04:56:43.872Z,3.00
2023-05-21T04:57:44.002Z,2.40
2023-05-21T04:58:44.134Z,2.60
2023-05-21T04:59:44.309Z,2.10
2023-05-21T05:00:44.388Z,2.40
2023-05-21T05:01:44.505Z,2.30
2023-05-21T05:02:44.753Z,2.70
2023-05-21T05:03:44.772Z,3.00
2023-05-21T05:04:44.865Z,3.40
2023-05-21T05:05:44.959Z,2.50
2023-05-21T05:06:45.091Z,2.60
2023-05-21T05:07:45.274Z,2.60
2023-05-21T05:08:45.343Z,2.20
2023-05-21T05:09:45.493Z,2.80
2023-05-21T05:10:45.590Z,2.30
2023-05-21T05:11:45.727Z,2.40
2023-05-21T05:12:45.910Z,2.90
2023-05-21T05:13:45.986Z,3.10
2023-05-21T05:14:46.120Z,2.60
2023-05-21T05:15:47.538Z,3.10
2023-05-21T05:16:46.373Z,2.60
2023-05-21T05:17:46.474Z,2.30
2023-05-21T05:18:46.555Z,3.10
2023-05-21T05:19:46.698Z,3.10
2023-05-21T05:20:46.791Z,2.60
2023-05-21T05:21:46.897Z,2.40
2023-05-21T05:22:47.028Z,2.10
2023-05-21T05:23:47.115Z,2.60
2023-05-21T05:24:47.236Z,2.50
2023-05-21T05:25:47.344Z,2.60
2023-05-21T05:26:47.501Z,2.80
2023-05-21T05:27:47.615Z,2.20
2023-05-21T05:28:47.710Z,2.70
2023-05-21T05:29:47.814Z,2.40
2023-05-21T05:30:48.024Z,2.50
2023-05-21T05:31:48.106Z,2.10
2023-05-21T05:32:48.229Z,2.40
2023-05-21T05:33:48.304Z,2.90
2023-05-21T05:34:48.510Z,2.50
2023-05-21T05:35:48.542Z,2.40
2023-05-21T05:36:48.696Z,3.00
2023-05-21T05:37:48.803Z,3.10
2023-05-21T05:38:48.925Z,3.60
2023-05-21T05:39:49.088Z,2.40
2023-05-21T05:40:49.173Z,1.90
2023-05-21T05:41:49.309Z,2.60
2023-05-21T05:42:49.482Z,2.50
2023-05-21T05:43:49.562Z,2.30
2023-05-21T05:44:49.713Z,2.60
2023-05-21T05:45:49.889Z,2.50
2023-05-21T05:46:49.937Z,2.70
2023-05-21T05:47:50.121Z,2.80
2023-05-21T05:48:50.186Z,3.00
2023-05-21T05:49:50.309Z,2.30
2023-05-21T05:50:50.494Z,2.30
2023-05-21T05:51:50.610Z,2.30
2023-05-21T05:52:50.714Z,3.00
2023-05-21T05:53:50.881Z,2.80
2023-05-21T05:54:51.025Z,2.60
2023-05-21T05:55:51.128Z,2.60
2023-05-21T05:56:51.317Z,2.40
2023-05-21T05:57:51.428Z,3.10
2023-05-21T05:58:51.511Z,2.30
2023-05-21T05:59:51.660Z,2.90
2023-05-21T06:00:51.848Z,2.80
2023-05-21T06:01:51.980Z,2.50
2023-05-21T06:02:52.184Z,3.20
2023-05-21T06:03:52.300Z,2.40
2023-05-21T06:04:52.291Z,2.90
2023-05-21T06:05:52.480Z,2.60
2023-05-21T06:06:52.562Z,2.40
2023-05-21T06:07:52.716Z,2.50
2023-05-21T06:08:52.864Z,2.50
2023-05-21T06:09:53.060Z,2.70
2023-05-21T06:10:53.166Z,2.40
2023-05-21T06:11:53.313Z,2.10
2023-05-21T06:12:53.435Z,2.60
2023-05-21T06:13:54.517Z,3.10
2023-05-21T06:14:53.655Z,2.90
2023-05-21T06:15:53.862Z,3.10
2023-05-21T06:16:53.920Z,2.60
2023-05-21T06:17:54.194Z,2.10
2023-05-21T06:18:54.180Z,2.70
2023-05-21T06:19:54.352Z,2.40
2023-05-21T06:20:54.430Z,3.00
2023-05-21T06:21:54.556Z,2.50
2023-05-21T06:22:54.712Z,2.50
2023-05-21T06:23:54.819Z,2.70
2023-05-21T06:24:54.940Z,2.70
2023-05-21T06:25:55.099Z,2.60
2023-05-21T06:26:55.188Z,2.60
2023-05-21T06:27:55.311Z,2.40
2023-05-21T06:28:55.434Z,2.90
2023-05-21T06:29:55.518Z,2.70
2023-05-21T06:30:55.648Z,2.40
2023-05-21T06:31:55.805Z,3.10
2023-05-21T06:32:55.965Z,2.20
2023-05-21T06:33:56.077Z,2.70
2023-05-21T06:34:56.167Z,2.90
2023-05-21T06:35:56.338Z,2.60
2023-05-21T06:36:56.489Z,3.30
2023-05-21T06:37:56.619Z,2.30
2023-05-21T06:38:56.735Z,2.70
2023-05-21T06:39:56.904Z,2.20
2023-05-21T06:40:56.974Z,2.50
2023-05-21T06:41:57.108Z,2.50
2023-05-21T06:42:57.218Z,3.50
2023-05-21T06:43:57.375Z,2.60
2023-05-21T06:44:57.517Z,3.00
2023-05-21T06:45:57.738Z,3.60
2023-05-21T06:46:57.791Z,2.40
2023-05-21T06:47:57.991Z,3.30
2023-05-21T06:48:58.028Z,2.60
2023-05-21T06:49:58.169Z,2.70
2023-05-21T06:50:58.294Z,1.70
2023-05-21T06:51:58.430Z,2.30
2023-05-21T06:52:58.572Z,2.40
2023-05-21T06:53:58.691Z,3.70
2023-05-21T06:54:58.818Z,2.30
2023-05-21T06:55:58.973Z,3.10
2023-05-21T06:56:59.088Z,2.80
2023-05-21T06:57:59.183Z,2.70
2023-05-21T06:58:59.269Z,2.00
2023-05-21T06:59:59.401Z,2.10
2023-05-21T07:00:59.584Z,2.90
2023-05-21T07:01:59.693Z,2.10
2023-05-21T07:02:59.892Z,2.90
2023-05-21T07:03:59.890Z,3.10
2023-05-21T07:05:00.005Z,2.40
2023-05-21T07:06:00.159Z,2.90
2023-05-21T07:07:00.266Z,2.30
2023-05-21T07:08:00.418Z,2.40
2023-05-21T07:09:00.545Z,2.90
2023-05-21T07:10:00.654Z,2.70
2023-05-21T07:11:00.801Z,2.80
2023-05-21T07:12:00.961Z,2.30
2023-05-21T07:13:01.242Z,2.40
2023-05-21T07:15:16.774Z,2.50
2023-05-21T07:16:16.896Z,3.00
2023-05-21T07:17:17.017Z,2.30
2023-05-21T07:18:17.167Z,2.90
2023-05-21T07:19:17.388Z,3.30
2023-05-21T07:20:17.405Z,2.70
2023-05-21T07:21:17.522Z,2.70
2023-05-21T07:22:17.690Z,2.60
2023-05-21T07:23:17.778Z,2.40
2023-05-21T07:24:17.907Z,3.80
2023-05-21T07:25:18.017Z,2.80
2023-05-21T07:26:18.161Z,2.70
2023-05-21T07:28:19.417Z,2.50
2023-05-21T07:29:18.575Z,2.40
2023-05-21T07:30:18.662Z,3.30
2023-05-21T07:31:18.849Z,3.30
2023-05-21T07:32:18.917Z,3.20
2023-05-21T07:33:19.043Z,2.80
2023-05-21T07:34:19.181Z,2.30
2023-05-21T07:35:19.323Z,2.40
2023-05-21T07:36:19.424Z,3.40
2023-05-21T07:37:19.601Z,2.10
2023-05-21T07:38:19.663Z,2.70
2023-05-21T07:39:19.823Z,2.50
2023-05-21T07:40:19.901Z,2.90
2023-05-21T07:41:20.039Z,2.50
2023-05-21T07:42:20.117Z,2.80
2023-05-21T07:43:20.259Z,2.50
2023-05-21T07:44:20.381Z,2.40
2023-05-21T07:45:20.477Z,2.40
2023-05-21T07:46:20.643Z,2.20
2023-05-21T07:47:21.768Z,2.30
2023-05-21T07:48:20.863Z,2.60
2023-05-21T07:49:20.988Z,2.40
2023-05-21T07:50:21.125Z,2.80
2023-05-21T07:51:21.256Z,1.90
2023-05-21T07:52:21.393Z,2.70
2023-05-21T07:53:21.531Z,2.30
2023-05-21T07:54:21.617Z,2.60
2023-05-21T07:55:21.744Z,2.50
2023-05-21T07:56:21.877Z,2.30
2023-05-21T07:57:21.991Z,2.90
2023-05-21T07:58:22.127Z,2.60
2023-05-21T07:59:22.235Z,2.30
2023-05-21T08:00:22.357Z,3.20
2023-05-21T08:01:22.495Z,2.20
2023-05-21T08:02:22.747Z,3.00
2023-05-21T08:03:22.910Z,3.20
2023-05-21T08:04:23.135Z,2.00
2023-05-21T08:05:23.027Z,2.50
2023-05-21T08:06:23.151Z,3.30
2023-05-21T08:07:23.311Z,2.40
2023-05-21T08:08:23.420Z,2.30
2023-05-21T08:09:23.512Z,2.30
2023-05-21T08:10:23.670Z,2.00
2023-05-21T08:11:23.787Z,2.80
2023-05-21T08:12:23.906Z,2.40
2023-05-21T08:13:24.041Z,2.50
2023-05-21T08:14:24.129Z,2.90
2023-05-21T08:15:24.258Z,3.00
2023-05-21T08:16:24.408Z,2.40
2023-05-21T08:17:24.570Z,3.30
2023-05-21T08:18:24.653Z,2.30
2023-05-21T08:19:24.867Z,2.30
2023-05-21T08:20:24.885Z,2.60
2023-05-21T08:21:25.014Z,3.30
2023-05-21T08:22:25.130Z,2.10
2023-05-21T08:23:25.262Z,2.50
2023-05-21T08:24:25.412Z,2.20
2023-05-21T08:25:25.543Z,2.60
2023-05-21T08:26:25.673Z,3.00
2023-05-21T08:27:25.835Z,2.30
2023-05-21T08:28:25.952Z,2.20
2023-05-21T08:29:26.116Z,2.40
2023-05-21T08:30:26.236Z,2.40
2023-05-21T08:31:26.430Z,2.00
2023-05-21T08:32:26.540Z,2.00
2023-05-21T08:33:26.636Z,2.30
2023-05-21T08:34:26.806Z,2.80
2023-05-21T08:35:26.908Z,2.60
2023-05-21T08:36:27.029Z,1.90
2023-05-21T08:37:27.189Z,2.80
2023-05-21T08:38:29.508Z,2.60
2023-05-21T08:39:27.438Z,2.50
2023-05-21T08:40:27.524Z,2.40
2023-05-21T08:41:27.642Z,2.10
2023-05-21T08:42:36.227Z,2.40
2023-05-21T08:43:28.909Z,2.90
2023-05-21T08:44:28.004Z,2.60
2023-05-21T08:45:28.211Z,2.00
2023-05-21T08:46:28.316Z,3.40
2023-05-21T08:47:28.431Z,2.30
2023-05-21T08:48:28.566Z,2.80
2023-05-21T08:49:28.710Z,2.70
2023-05-21T08:50:28.870Z,2.60
2023-05-21T08:51:28.962Z,2.50
2023-05-21T08:52:29.103Z,2.70
2023-05-21T08:53:29.454Z,2.80
2023-05-21T08:54:29.370Z,2.80
2023-05-21T08:55:29.528Z,1.90
2023-05-21T08:56:29.605Z,3.00
2023-05-21T08:57:29.750Z,2.70
2023-05-21T08:58:29.872Z,2.60
2023-05-21T08:59:30.002Z,2.80
2023-05-21T09:00:30.115Z,2.60
2023-05-21T09:01:30.314Z,2.20
2023-05-21T09:02:30.485Z,2.10
2023-05-21T09:03:30.664Z,2.70
2023-05-21T09:04:30.921Z,1.90
2023-05-21T09:05:30.829Z,2.70
2023-05-21T09:06:30.937Z,2.40
2023-05-21T09:07:31.091Z,2.50
2023-05-21T09:08:31.223Z,2.70
2023-05-21T09:09:31.330Z,2.40
2023-05-21T09:10:31.475Z,2.70
2023-05-21T09:11:31.622Z,2.30
2023-05-21T09:12:31.747Z,3.00
2023-05-21T09:13:31.893Z,2.60
2023-05-21T09:14:32.018Z,2.50
2023-05-21T09:15:32.155Z,2.40
2023-05-21T09:16:32.330Z,2.20
2023-05-21T09:17:32.468Z,3.70
2023-05-21T09:18:32.571Z,2.60
2023-05-21T09:19:32.793Z,2.50
2023-05-21T09:20:32.876Z,2.60
2023-05-21T09:21:33.012Z,3.40
2023-05-21T09:22:33.136Z,2.90
2023-05-21T09:23:33.244Z,2.40
2023-05-21T09:24:36.083Z,2.90
2023-05-21T09:25:33.491Z,2.80
2023-05-21T09:26:33.623Z,2.90
2023-05-21T09:27:33.741Z,2.50
2023-05-21T09:28:33.864Z,2.80
2023-05-21T09:29:34.109Z,2.70
2023-05-21T09:30:35.951Z,3.00
2023-05-21T09:31:34.265Z,2.60
2023-05-21T09:32:34.369Z,2.30
2023-05-21T09:33:34.492Z,2.50
2023-05-21T09:34:34.614Z,2.90
2023-05-21T09:35:36.158Z,2.50
2023-05-21T09:36:34.843Z,2.20
2023-05-21T09:37:34.994Z,2.50
2023-05-21T09:38:35.105Z,2.80
2023-05-21T09:39:35.307Z,2.50
2023-05-21T09:40:35.674Z,2.80
2023-05-21T09:41:35.477Z,3.30
2023-05-21T09:42:35.610Z,2.50
2023-05-21T09:43:35.744Z,3.30
2023-05-21T09:44:35.898Z,2.70
2023-05-21T09:45:36.266Z,2.60
2023-05-21T09:46:36.142Z,3.10
2023-05-21T09:47:36.306Z,3.20
2023-05-21T09:48:36.415Z,3.10
2023-05-21T09:49:36.512Z,2.90
2023-05-21T09:50:36.856Z,2.90
2023-05-21T09:51:36.805Z,3.00
2023-05-21T09:52:36.939Z,2.70
2023-05-21T09:53:37.122Z,2.90
2023-05-21T09:54:37.193Z,2.90
2023-05-21T09:55:37.349Z,3.00
2023-05-21T09:56:37.409Z,2.90
2023-05-21T09:57:37.550Z,3.00
2023-05-21T09:58:37.681Z,3.20
2023-05-21T09:59:37.801Z,3.00
2023-05-21T10:00:38.042Z,3.00
2023-05-21T10:01:38.115Z,3.30
2023-05-21T10:02:38.241Z,2.90
2023-05-21T10:03:38.380Z,3.20
2023-05-21T10:04:38.657Z,3.20
2023-05-21T10:05:38.660Z,2.90
2023-05-21T10:06:38.799Z,3.30
2023-05-21T10:07:38.947Z,3.00
2023-05-21T10:08:39.077Z,3.30
2023-05-21T10:09:39.202Z,3.40
2023-05-21T10:10:39.305Z,3.30
2023-05-21T10:11:39.462Z,3.60
2023-05-21T10:12:39.579Z,3.10
2023-05-21T10:13:39.710Z,2.90
2023-05-21T10:14:39.830Z,3.40
2023-05-21T10:15:39.959Z,3.20
2023-05-21T10:16:40.148Z,2.90
2023-05-21T10:17:40.187Z,2.80
2023-05-21T10:28:58.928Z,4.60
2023-05-21T10:29:59.020Z,3.50
2023-05-21T10:30:59.148Z,3.90
2023-05-21T10:31:59.327Z,3.90
2023-05-21T10:32:59.536Z,2.90
2023-05-21T10:33:59.557Z,3.50
2023-05-21T10:35:01.521Z,3.80
2023-05-21T10:35:59.798Z,3.60
2023-05-21T10:36:59.892Z,3.90
2023-05-21T10:37:59.994Z,3.60
2023-05-21T10:39:00.224Z,4.30
2023-05-21T10:40:00.270Z,4.00
2023-05-21T10:41:00.371Z,3.20
2023-05-21T10:42:00.530Z,4.00
2023-05-21T10:43:00.609Z,4.40
2023-05-21T10:44:00.727Z,3.20
2023-05-21T10:45:00.915Z,3.70
2023-05-21T10:46:01.033Z,3.60
2023-05-21T10:47:01.085Z,3.60
2023-05-21T10:48:01.227Z,3.20
2023-05-21T10:49:01.341Z,4.00
2023-05-21T10:50:01.484Z,4.70
2023-05-21T10:51:01.614Z,3.80
2023-05-21T10:52:01.740Z,3.70
2023-05-21T10:53:01.851Z,4.10
2023-05-21T10:54:01.971Z,4.10
2023-05-21T10:55:02.106Z,4.70
2023-05-21T10:56:02.222Z,3.70
2023-05-21T10:57:02.367Z,3.40
2023-05-21T10:58:02.491Z,4.20
2023-05-21T10:59:02.626Z,4.20
2023-05-21T11:00:02.765Z,4.80
2023-05-21T11:01:02.874Z,3.50
2023-05-21T11:02:02.994Z,4.20
2023-05-21T11:03:03.245Z,4.00
2023-05-21T11:04:03.261Z,4.50
2023-05-21T11:05:03.395Z,4.80
2023-05-21T11:06:03.526Z,4.10
2023-05-21T11:07:03.654Z,3.50
2023-05-21T11:08:03.780Z,4.40
2023-05-21T11:09:03.934Z,4.10
2023-05-21T11:10:04.059Z,3.60
2023-05-21T11:11:04.189Z,4.40
2023-05-21T11:12:04.315Z,4.50
2023-05-21T11:13:04.455Z,4.20
2023-05-21T11:14:04.580Z,4.40
2023-05-21T11:15:04.692Z,4.60
2023-05-21T11:16:04.809Z,4.90
2023-05-21T11:17:05.080Z,4.60
2023-05-21T11:18:05.072Z,4.40
2023-05-21T11:19:05.216Z,4.40
2023-05-21T11:20:05.265Z,4.40
2023-05-21T11:21:05.399Z,4.50
2023-05-21T11:22:05.534Z,4.90
2023-05-21T11:23:05.637Z,4.40
2023-05-21T11:24:05.812Z,5.10
2023-05-21T11:25:05.917Z,4.10
2023-05-21T11:26:06.058Z,5.30
2023-05-21T11:27:06.173Z,5.20
2023-05-21T11:28:06.322Z,5.30
2023-05-21T11:29:06.462Z,4.30
2023-05-21T11:30:06.601Z,4.80
2023-05-21T11:31:06.761Z,4.60
2023-05-21T11:32:06.865Z,4.30
2023-05-21T11:33:07.021Z,4.30
2023-05-21T11:34:07.124Z,4.40
2023-05-21T11:35:07.259Z,4.80
2023-05-21T11:36:07.360Z,4.70
2023-05-21T11:37:07.469Z,4.90
2023-05-21T11:38:07.588Z,4.80
2023-05-21T11:39:07.704Z,5.10
2023-05-21T11:40:07.875Z,4.40
2023-05-21T11:41:07.951Z,4.50
2023-05-21T11:42:08.062Z,5.30
2023-05-21T11:43:08.178Z,5.10
2023-05-21T11:44:08.311Z,5.00
2023-05-21T11:45:08.431Z,4.50
2023-05-21T11:46:08.598Z,4.90
2023-05-21T11:47:08.707Z,5.00
2023-05-21T11:48:08.869Z,5.00
2023-05-21T11:49:08.977Z,5.50
2023-05-21T11:50:09.079Z,5.60
2023-05-21T11:51:09.205Z,5.20
2023-05-21T11:52:09.350Z,5.00
2023-05-21T11:53:09.456Z,5.10
2023-05-21T11:54:09.578Z,4.60
2023-05-21T11:55:09.678Z,5.00
2023-05-21T11:56:09.882Z,4.90
2023-05-21T11:57:09.987Z,4.40
2023-05-21T11:58:10.072Z,5.10
2023-05-21T11:59:10.199Z,5.60
2023-05-21T12:00:10.374Z,5.70
2023-05-21T12:01:10.504Z,5.50
2023-05-21T12:02:11.328Z,5.50
2023-05-21T12:03:10.752Z,5.20
2023-05-21T12:04:10.871Z,5.50
2023-05-21T12:05:13.063Z,5.30
2023-05-21T12:06:11.192Z,6.00
2023-05-21T12:07:11.199Z,6.10
2023-05-21T12:08:11.307Z,5.30
2023-05-21T12:09:11.448Z,5.40
2023-05-21T12:10:11.602Z,5.30
2023-05-21T12:11:11.721Z,5.30
2023-05-21T12:12:11.848Z,5.10
2023-05-21T12:13:11.957Z,5.30
2023-05-21T12:14:12.145Z,6.10
2023-05-21T12:15:12.224Z,5.50
2023-05-21T12:16:12.389Z,5.90
2023-05-21T12:17:12.491Z,6.00
2023-05-21T12:18:12.704Z,5.50
2023-05-21T12:19:12.820Z,5.80
2023-05-21T12:20:12.981Z,5.00
2023-05-21T12:21:13.138Z,5.50
2023-05-21T12:22:13.270Z,6.30
2023-05-21T12:23:13.463Z,5.10
2023-05-21T12:24:13.595Z,5.60
2023-05-21T12:25:13.733Z,6.30
2023-05-21T12:26:13.890Z,5.80
2023-05-21T12:27:14.025Z,5.00
2023-05-21T12:28:14.109Z,6.50
2023-05-21T12:29:14.255Z,5.80
2023-05-21T12:30:14.422Z,5.60
2023-05-21T12:31:14.589Z,6.40
2023-05-21T12:32:14.736Z,5.90
2023-05-21T12:33:14.846Z,5.20
2023-05-21T12:34:15.001Z,5.50
2023-05-21T12:35:15.170Z,6.00
2023-05-21T12:36:15.268Z,6.30
2023-05-21T12:37:15.430Z,5.90
2023-05-21T12:38:15.558Z,6.00
2023-05-21T12:39:15.719Z,7.10
2023-05-21T12:40:15.859Z,6.20
2023-05-21T12:41:15.970Z,6.00
2023-05-21T12:42:16.127Z,5.70
2023-05-21T12:43:16.236Z,6.10
2023-05-21T12:44:16.343Z,5.90
2023-05-21T12:45:16.490Z,5.70
2023-05-21T12:46:16.665Z,5.60
2023-05-21T12:47:16.734Z,6.70
2023-05-21T12:48:16.935Z,6.20
2023-05-21T12:49:17.032Z,6.90
2023-05-21T12:50:17.145Z,6.20
2023-05-21T12:51:17.313Z,6.30
2023-05-21T12:52:17.466Z,5.70
2023-05-21T12:53:17.570Z,6.00
2023-05-21T12:54:17.744Z,6.90
2023-05-21T12:55:17.850Z,5.80
2023-05-21T12:56:17.960Z,6.00
2023-05-21T12:57:18.110Z,5.90
2023-05-21T12:58:18.214Z,5.80
2023-05-21T12:59:18.382Z,6.30
2023-05-21T13:00:18.503Z,6.80
2023-05-21T13:01:18.687Z,6.60
2023-05-21T13:02:18.767Z,6.50
2023-05-21T13:03:19.009Z,6.20
2023-05-21T13:04:19.154Z,6.80
2023-05-21T13:05:19.225Z,5.90
2023-05-21T13:06:19.331Z,7.00
2023-05-21T13:07:19.476Z,6.90
2023-05-21T13:08:19.613Z,5.80
2023-05-21T13:09:19.689Z,6.00
2023-05-21T13:10:19.834Z,6.20
2023-05-21T13:11:19.956Z,7.40
2023-05-21T13:12:20.058Z,6.80
2023-05-21T13:13:20.161Z,7.20
2023-05-21T13:14:20.269Z,7.20
2023-05-21T13:15:20.384Z,6.60
2023-05-21T13:16:20.546Z,6.20
2023-05-21T13:17:20.629Z,7.50
2023-05-21T13:18:20.804Z,6.50
2023-05-21T13:19:20.904Z,6.90
2023-05-21T13:20:21.123Z,6.90
2023-05-21T13:21:21.109Z,7.30
2023-05-21T13:22:21.269Z,6.60
2023-05-21T13:23:21.384Z,7.30
2023-05-21T13:24:21.501Z,6.70
2023-05-21T13:25:21.776Z,6.90
2023-05-21T13:26:21.706Z,6.90
2023-05-21T13:27:21.835Z,7.00
2023-05-21T13:28:21.952Z,7.00
2023-05-21T13:29:22.114Z,6.60
2023-05-21T13:30:22.224Z,6.50
2023-05-21T13:31:22.405Z,7.40
2023-05-21T13:32:22.573Z,7.00
2023-05-21T13:33:22.926Z,7.00
2023-05-21T13:34:22.719Z,7.00
2023-05-21T13:35:22.865Z,7.70
2023-05-21T13:36:22.974Z,6.90
2023-05-21T13:37:23.111Z,7.50
2023-05-21T13:38:23.260Z,6.90
2023-05-21T13:39:23.409Z,7.60
2023-05-21T13:40:23.573Z,7.30
2023-05-21T13:41:23.705Z,7.00
2023-05-21T13:42:23.797Z,7.00
2023-05-21T13:43:23.917Z,8.00
2023-05-21T13:44:24.065Z,7.20
2023-05-21T13:45:24.169Z,6.70
2023-05-21T13:46:24.340Z,6.80
2023-05-21T13:47:24.471Z,7.00
2023-05-21T13:48:24.557Z,7.20
2023-05-21T13:49:24.793Z,9.20
2023-05-21T13:50:24.854Z,7.80
2023-05-21T13:51:38.077Z,7.50
2023-05-21T13:52:26.085Z,7.10
2023-05-21T13:53:25.235Z,7.80
2023-05-21T13:54:25.352Z,8.10
2023-05-21T13:55:25.448Z,8.40
2023-05-21T13:56:25.571Z,8.70
2023-05-21T13:57:25.671Z,8.10
2023-05-21T13:58:25.853Z,7.10
2023-05-21T13:59:25.965Z,7.60
2023-05-21T14:00:26.069Z,7.70
2023-05-21T14:01:26.214Z,6.80
2023-05-21T14:02:26.517Z,8.30
2023-05-21T14:03:26.450Z,6.80
2023-05-21T14:04:26.613Z,7.70
2023-05-21T14:05:26.720Z,8.20
2023-05-21T14:06:26.855Z,8.20
2023-05-21T14:07:26.962Z,8.20
2023-05-21T14:08:27.050Z,8.60
2023-05-21T14:09:27.300Z,8.20
2023-05-21T14:10:27.361Z,7.70
2023-05-21T14:11:27.488Z,8.50
2023-05-21T14:12:27.580Z,7.80
2023-05-21T14:13:27.701Z,7.90
2023-05-21T14:14:27.821Z,7.70
2023-05-21T14:15:27.905Z,8.10
2023-05-21T14:16:28.163Z,7.30
2023-05-21T14:17:28.211Z,8.10
2023-05-21T14:18:28.317Z,7.90
2023-05-21T14:19:28.524Z,8.10
2023-05-21T14:20:28.549Z,8.30
2023-05-21T14:21:28.694Z,7.70
2023-05-21T14:22:28.771Z,8.10
2023-05-21T14:23:28.939Z,7.90
2023-05-21T14:24:29.054Z,8.80
2023-05-21T14:25:29.175Z,7.60
2023-05-21T14:26:29.310Z,8.40
2023-05-21T14:27:29.400Z,9.10
2023-05-21T14:28:29.518Z,8.90
2023-05-21T14:29:29.598Z,8.50
2023-05-21T14:30:29.710Z,8.50
2023-05-21T14:31:29.931Z,7.70
2023-05-21T14:32:30.140Z,8.60
2023-05-21T14:33:30.109Z,8.90
2023-05-21T14:34:30.217Z,8.30
2023-05-21T14:35:31.309Z,7.90
2023-05-21T14:36:30.459Z,8.40
2023-05-21T14:37:30.639Z,8.80
2023-05-21T14:38:30.746Z,8.40
2023-05-21T14:39:30.857Z,7.70
2023-05-21T14:40:31.019Z,7.40
2023-05-21T14:41:31.137Z,8.70
2023-05-21T14:42:32.020Z,8.90
2023-05-21T14:43:31.399Z,8.50
2023-05-21T14:44:32.466Z,8.00
2023-05-21T14:45:31.585Z,8.50
2023-05-21T14:46:31.783Z,8.10
2023-05-21T14:47:31.871Z,8.20
2023-05-21T14:48:31.941Z,8.60
2023-05-21T14:49:32.072Z,9.00
2023-05-21T14:50:32.160Z,8.40
2023-05-21T14:51:32.323Z,9.30
2023-05-21T14:52:32.416Z,8.60
2023-05-21T14:53:32.580Z,8.70
2023-05-21T14:54:32.707Z,8.20
2023-05-21T14:55:33.741Z,9.00
2023-05-21T14:56:32.938Z,8.20
2023-05-21T14:57:33.023Z,7.90
2023-05-21T14:58:33.201Z,8.30
2023-05-21T14:59:33.348Z,8.40
2023-05-21T15:00:33.429Z,9.10
2023-05-21T15:01:33.682Z,9.00
2023-05-21T15:02:33.803Z,9.10
2023-05-21T15:03:34.008Z,9.60
2023-05-21T15:04:33.928Z,8.70
2023-05-21T15:05:34.142Z,8.50
2023-05-21T15:06:34.247Z,8.40
2023-05-21T15:07:34.385Z,9.40
2023-05-21T15:08:34.531Z,8.30
2023-05-21T15:09:34.687Z,8.70
2023-05-21T15:10:34.829Z,8.60
2023-05-21T15:11:34.925Z,9.50
2023-05-21T15:12:35.046Z,9.30
2023-05-21T15:13:35.178Z,9.00
2023-05-21T15:14:35.325Z,8.60
2023-05-21T15:15:36.016Z,8.50
2023-05-21T15:16:35.644Z,8.30
2023-05-21T15:17:35.726Z,8.60
2023-05-21T15:18:35.809Z,9.40
2023-05-21T15:19:36.097Z,8.30
2023-05-21T15:20:36.087Z,9.10
2023-05-21T15:21:36.200Z,8.90
2023-05-21T15:22:36.348Z,8.50
2023-05-21T15:23:36.468Z,8.20
2023-05-21T15:24:36.604Z,8.90
2023-05-21T15:25:37.014Z,8.90
2023-05-21T15:26:36.890Z,9.40
2023-05-21T15:27:37.081Z,9.40
2023-05-21T15:28:37.173Z,9.10
2023-05-21T15:29:37.411Z,9.30
2023-05-21T15:30:37.507Z,8.80
2023-05-21T15:31:37.676Z,8.80
2023-05-21T15:32:37.856Z,8.90
2023-05-21T15:33:37.968Z,9.20
2023-05-21T15:34:38.151Z,9.10
2023-05-21T15:35:38.774Z,9.20
2023-05-21T15:36:38.399Z,8.80
2023-05-21T15:37:38.533Z,9.90
2023-05-21T15:38:38.678Z,8.50
2023-05-21T15:39:38.770Z,9.00
2023-05-21T15:40:38.892Z,9.60
2023-05-21T15:41:39.022Z,8.50
2023-05-21T15:42:39.171Z,9.80
2023-05-21T15:43:39.292Z,8.90
2023-05-21T15:44:39.417Z,9.20
2023-05-21T15:45:39.782Z,9.90
2023-05-21T15:46:39.763Z,8.90
2023-05-21T15:47:42.486Z,8.70
2023-05-21T15:48:40.007Z,8.50
2023-05-21T15:49:40.121Z,9.30
2023-05-21T15:50:40.311Z,8.70
2023-05-21T15:51:40.445Z,9.10
2023-05-21T15:52:40.544Z,8.70
2023-05-21T15:53:40.658Z,10.10
2023-05-21T15:54:40.804Z,9.50
2023-05-21T15:55:40.915Z,8.70
2023-05-21T15:56:41.008Z,8.90
2023-05-21T15:57:41.184Z,9.00
2023-05-21T15:58:41.307Z,8.90
2023-05-21T15:59:41.396Z,9.20
2023-05-21T16:00:41.528Z,8.30
2023-05-21T16:01:41.628Z,9.50
2023-05-21T16:02:41.779Z,9.70
2023-05-21T16:03:41.942Z,8.80
2023-05-21T16:04:42.024Z,9.30
2023-05-21T16:05:42.152Z,8.90
2023-05-21T16:06:42.299Z,8.80
2023-05-21T16:07:42.404Z,9.40
2023-05-21T16:08:42.537Z,9.90
2023-05-21T16:09:42.665Z,9.80
2023-05-21T16:10:42.816Z,10.40
2023-05-21T16:11:42.889Z,9.60
2023-05-21T16:12:42.999Z,10.20
2023-05-21T16:13:43.124Z,9.30
2023-05-21T16:14:43.256Z,9.00
2023-05-21T16:15:43.447Z,9.50
2023-05-21T16:16:43.594Z,9.20
2023-05-21T16:28:08.001Z,9.70
2023-05-21T16:29:08.068Z,10.00
2023-05-21T16:30:08.202Z,10.50
2023-05-21T16:31:08.345Z,10.00
2023-05-21T16:32:08.489Z,10.20
2023-05-21T16:33:08.722Z,9.20
2023-05-21T16:34:08.811Z,10.20
2023-05-21T16:35:09.883Z,9.30
2023-05-21T16:36:09.092Z,9.90
2023-05-21T16:37:09.305Z,10.10
2023-05-21T16:38:09.345Z,10.40
2023-05-21T16:39:09.469Z,9.80
2023-05-21T16:40:09.611Z,9.80
2023-05-21T16:41:09.750Z,9.80
2023-05-21T16:42:09.878Z,10.10
2023-05-21T16:43:10.007Z,10.20
2023-05-21T16:44:10.166Z,10.60
2023-05-21T16:45:11.234Z,10.00
2023-05-21T16:46:10.489Z,10.50
2023-05-21T16:47:10.633Z,10.00
2023-05-21T16:48:10.756Z,10.60
2023-05-21T16:49:10.869Z,9.70
2023-05-21T16:50:10.996Z,10.30
2023-05-21T16:51:11.134Z,9.60
2023-05-21T16:52:11.277Z,9.10
2023-05-21T16:53:11.391Z,8.80
2023-05-21T16:54:11.488Z,9.40
2023-05-21T16:55:11.673Z,9.20
2023-05-21T16:56:11.784Z,10.20
2023-05-21T16:57:11.961Z,8.70
2023-05-21T16:58:12.100Z,9.70
2023-05-21T16:59:12.220Z,10.10
2023-05-21T17:00:12.350Z,8.60
2023-05-21T17:01:12.556Z,10.40
2023-05-21T17:02:12.590Z,9.90
2023-05-21T17:03:12.871Z,9.20
2023-05-21T17:04:12.874Z,9.60
2023-05-21T17:05:12.940Z,9.80
2023-05-21T17:06:13.107Z,9.50
2023-05-21T17:07:13.225Z,9.10
2023-05-21T17:08:13.332Z,10.00
2023-05-21T17:09:13.515Z,9.90
2023-05-21T17:10:13.645Z,8.70
2023-05-21T17:11:13.754Z,9.80
2023-05-21T17:12:13.938Z,9.50
2023-05-21T17:13:22.102Z,9.00
2023-05-21T17:14:20.355Z,9.20
2023-05-21T17:15:15.349Z,9.50
2023-05-21T17:16:14.479Z,10.70
2023-05-21T17:17:14.565Z,9.70
2023-05-21T17:18:14.723Z,9.20
2023-05-21T17:19:14.914Z,10.40
2023-05-21T17:20:15.017Z,9.20
2023-05-21T17:21:15.162Z,8.70
2023-05-21T17:22:15.306Z,10.20
2023-05-21T17:23:15.510Z,9.70
2023-05-21T17:24:15.556Z,9.90
2023-05-21T17:25:15.675Z,9.30
2023-05-21T17:26:15.801Z,10.80
2023-05-21T17:27:15.955Z,9.30
2023-05-21T17:28:16.017Z,10.00
2023-05-21T17:29:16.174Z,10.10
2023-05-21T17:30:16.417Z,9.90
2023-05-21T17:31:16.424Z,9.80
2023-05-21T17:32:16.536Z,9.80
2023-05-21T17:33:16.714Z,10.00
2023-05-21T17:34:16.814Z,9.80
2023-05-21T17:35:16.959Z,10.00
2023-05-21T17:36:17.070Z,9.70
2023-05-21T17:37:17.213Z,10.40
2023-05-21T17:38:17.323Z,9.50
2023-05-21T17:39:17.469Z,10.50
2023-05-21T17:40:17.607Z,9.90
2023-05-21T17:41:17.722Z,8.80
2023-05-21T17:42:17.896Z,10.20
2023-05-21T17:43:18.053Z,9.70
2023-05-21T17:44:18.207Z,9.60
2023-05-21T17:45:19.272Z,10.00
2023-05-21T17:46:18.483Z,10.50
2023-05-21T17:47:18.643Z,9.70
2023-05-21T17:48:18.810Z,9.80
2023-05-21T17:49:18.917Z,9.80
2023-05-21T17:50:19.062Z,9.00
2023-05-21T17:51:19.176Z,10.40
2023-05-21T17:52:19.351Z,10.90
2023-05-21T17:53:19.509Z,9.90
2023-05-21T17:54:19.641Z,9.70
2023-05-21T17:55:19.776Z,10.10
2023-05-21T17:56:19.890Z,10.60